Overview Statistics Trail Chart Weather Telemetry Raw packets
 

This is the latest recevied weather packets stored in our database for station/object SV1JSO-13. If no packets are shown the sender has not sent any weather packets the latest 10 day(s).

<< 60 61 62 63 64 65 66 >>
Time Temp. Humidity Pressure Rain* Wind** Luminosity Snow
1788249600 31.11° C 36% 1008.5 hPa 0 mm - 563 W/m² -
1788249300 31.11° C 37% 1008.5 hPa 0 mm - 549 W/m² -
1788249000 30.56° C 39% 1008.6 hPa 0 mm - 544 W/m² -
1788248700 30° C 40% 1008.4 hPa 0 mm - 529 W/m² -
1788248400 30° C 40% 1008.4 hPa 0 mm - 518 W/m² -
1788248100 29.44° C 44% 1008.4 hPa 0 mm - 506 W/m² -
1788247800 29.44° C 44% 1008.4 hPa 0 mm - 493 W/m² -
1788247500 28.89° C 43% 1008.3 hPa 0 mm - 481 W/m² -
1788247200 29.44° C 42% 1008.3 hPa 0 mm - 464 W/m² -
1788246900 29.44° C 41% 1008.4 hPa 0 mm - 448 W/m² -
1788246600 29.44° C 41% 1008.3 hPa 0 mm - 434 W/m² -
1788246300 29.44° C 42% 1008.4 hPa 0 mm - 418 W/m² -
1788246000 30° C 41% 1008.3 hPa 0 mm - 408 W/m² -
1788245700 28.89° C 43% 1008.2 hPa 0 mm - 387 W/m² -
1788245400 29.44° C 42% 1008.3 hPa 0 mm - 369 W/m² -
1788245101 29.44° C 43% 1008.2 hPa 0 mm - 354 W/m² -
1788244800 30.56° C 40% 1008.3 hPa 0 mm - 339 W/m² -
1788244500 30.56° C 40% 1008.2 hPa 0 mm - 321 W/m² -
1788244200 30° C 41% 1008.3 hPa 0 mm - 310 W/m² -
1788243900 29.44° C 39% 1008.4 hPa 0 mm - 289 W/m² -
1788243600 29.44° C 39% 1008.4 hPa 0 mm - 274 W/m² -
1788243301 30° C 37% 1008.4 hPa 0 mm - 258 W/m² -
1788243000 29.44° C 41% 1008.4 hPa 0 mm - 247 W/m² -
1788242700 29.44° C 40% 1008.5 hPa 0 mm - 232 W/m² -
1788242400 29.44° C 41% 1008.5 hPa 0 mm - 216 W/m² -

* Rain latest hour (hover to see other rain measurements)
** Current wind speed in m/s (hover to see current wind gust speed)